Lewisville's Hourly Summary for Saturday, April 15, 2017
Hour Temp
(f)
RH
(%)
Solar Rad.
(MJ/m2)
Rainfall
(in)
Wind
(mph)
4/15/2017 12:00 AM 70 63 0 0 4.96
4/15/2017 1:00 AM 70 63 0 0 6.19
4/15/2017 2:00 AM 70 66 0 0 6.78
4/15/2017 3:00 AM 69 70 0 0 6.69
4/15/2017 4:00 AM 68 75 0 0 7.2
4/15/2017 5:00 AM 67 80 0 0 6.12
4/15/2017 6:00 AM 67 82 0 0 8.23
4/15/2017 7:00 AM 66 84 0 0 6.34
4/15/2017 8:00 AM 66 84 0.22 0 6.86
4/15/2017 9:00 AM 67 78 0.54 0 9.08
4/15/2017 10:00 AM 70 72 1.53 0 10.49
4/15/2017 11:00 AM 73 64 2.31 0 10.23
4/15/2017 12:00 PM 74 61 2.58 0 11.21
4/15/2017 1:00 PM 75 59 2.57 0 11.31
4/15/2017 2:00 PM 77 58 2.6 0 10.87
4/15/2017 3:00 PM 77 57 1.53 0 10.17
4/15/2017 4:00 PM 77 56 1.5 0 10.23
4/15/2017 5:00 PM 78 54 1.56 0 10.03
4/15/2017 6:00 PM 78 55 1.24 0 10.33
4/15/2017 7:00 PM 77 58 0.56 0 10
4/15/2017 8:00 PM 76 59 0.18 0 8.14
4/15/2017 9:00 PM 75 62 0 0 7.12
4/15/2017 10:00 PM 74 64 0 0 6.05
4/15/2017 11:00 PM 72 68 0 0 4.74
Data Summary 72 66 18.92 0.00 8.31